Tasman — ZDKI2 — position and weather

sailwx.info

Track history (hours):
 
Tides and Currents Weather Stations Pressure Air Temp Water Temp Dewpoint Dewpoint Depression Visibility Wind Speed Wind Dir Waves Ship Positions

Tasman

Last reported at 2014-Sep-20 18:08 UTC. Time now 2014-Sep-21 02:04 UTC.
Position N 39°01' E 009°40'.

Length 90 m; draft 4 m.

Type: Ship. MMSI: 23617000.

Date/timePositionNaut miles runAvg speedWind from/ knotsBaromVisibWave heightAir tempDewpointWater temp
2014-Sep-20 18:08N 39°01' E 009°40'12 7.6
2014-Sep-20 16:31N 38°56' E 009°26'7 7.4
2014-Sep-20 15:32N 38°53' E 009°18'7 7.4
2014-Sep-20 14:33N 38°50' E 009°09'8 7.2
2014-Sep-20 13:25N 38°46' E 008°60'6 7.0
2014-Sep-20 12:33N 38°44' E 008°52'8 6.9
2014-Sep-20 11:24N 38°42' E 008°43'8 6.8
2014-Sep-20 10:11N 38°40' E 008°33'294 7.4
2014-Sep-18 18:17N 37°24' E 002°32'383 8.7
2014-Sep-16 22:04N 36°00' W 005°14'713.3
2014-Sep-16 21:33N 35°58' W 005°22'  
2014-Sep-12 01:18N 50°35' E 000°16'810.5
2014-Sep-12 00:33N 50°38' E 000°28'10 9.5
2014-Sep-11 23:33N 50°42' E 000°41'10 9.8
2014-Sep-11 22:33N 50°48' E 000°54'2512.4
2014-Sep-11 20:33N 51°03' E 001°25'1414.3
2014-Sep-11 19:34N 51°12' E 001°42'1212.1
2014-Sep-11 18:33N 51°22' E 001°53'1110.5
2014-Sep-11 17:33N 51°31' E 002°02'9710.6
2014-Sep-11 08:23N 52°31' E 004°06'810.3
2014-Sep-11 07:33N 52°30' E 004°20'1010.2
2014-Sep-11 06:33N 52°28' E 004°36'0 0.2
2014-Sep-11 05:31N 52°28' E 004°36'0 0.0
2014-Sep-11 04:31N 52°28' E 004°36'0 0.0
2014-Sep-11 03:33N 52°28' E 004°36'0 0.0
2014-Sep-11 02:33N 52°28' E 004°36'0 0.0
2014-Sep-11 01:29N 52°28' E 004°36'0 0.0
2014-Sep-11 00:29N 52°28' E 004°36'0 0.0
2014-Sep-10 23:31N 52°28' E 004°36'0 0.0
2014-Sep-10 22:28N 52°28' E 004°36'0 0.0
2014-Sep-10 21:31N 52°28' E 004°36'0 0.0
2014-Sep-10 20:33N 52°28' E 004°36'0 0.0
2014-Sep-10 19:33N 52°28' E 004°36'0 0.0
2014-Sep-10 18:32N 52°28' E 004°36'  
Track history (hours):
 
Tides and Currents Weather Stations Pressure Air Temp Water Temp Dewpoint Dewpoint Depression Visibility Wind Speed Wind Dir Waves Ship Positions

Tasman

Last reported at 2014-Sep-20 18:08 UTC. Time now 2014-Sep-21 02:04 UTC.
Position N 39°01' E 009°40'.

Length 90 m; draft 4 m.

Type: Ship. MMSI: 23617000.

Date/timePositionNaut miles runAvg speedWind from/ knotsBaromVisibWave heightAir tempDewpointWater temp
2014-Sep-20 18:08N 39°01' E 009°40'12 7.6
2014-Sep-20 16:31N 38°56' E 009°26'7 7.4
2014-Sep-20 15:32N 38°53' E 009°18'7 7.4
2014-Sep-20 14:33N 38°50' E 009°09'8 7.2
2014-Sep-20 13:25N 38°46' E 008°60'6 7.0
2014-Sep-20 12:33N 38°44' E 008°52'8 6.9
2014-Sep-20 11:24N 38°42' E 008°43'8 6.8
2014-Sep-20 10:11N 38°40' E 008°33'294 7.4
2014-Sep-18 18:17N 37°24' E 002°32'383 8.7
2014-Sep-16 22:04N 36°00' W 005°14'713.3
2014-Sep-16 21:33N 35°58' W 005°22'  
2014-Sep-12 01:18N 50°35' E 000°16'810.5
2014-Sep-12 00:33N 50°38' E 000°28'10 9.5
2014-Sep-11 23:33N 50°42' E 000°41'10 9.8
2014-Sep-11 22:33N 50°48' E 000°54'2512.4
2014-Sep-11 20:33N 51°03' E 001°25'1414.3
2014-Sep-11 19:34N 51°12' E 001°42'1212.1
2014-Sep-11 18:33N 51°22' E 001°53'1110.5
2014-Sep-11 17:33N 51°31' E 002°02'9710.6
2014-Sep-11 08:23N 52°31' E 004°06'810.3
2014-Sep-11 07:33N 52°30' E 004°20'1010.2
2014-Sep-11 06:33N 52°28' E 004°36'0 0.2
2014-Sep-11 05:31N 52°28' E 004°36'0 0.0
2014-Sep-11 04:31N 52°28' E 004°36'0 0.0
2014-Sep-11 03:33N 52°28' E 004°36'0 0.0
2014-Sep-11 02:33N 52°28' E 004°36'0 0.0
2014-Sep-11 01:29N 52°28' E 004°36'0 0.0
2014-Sep-11 00:29N 52°28' E 004°36'0 0.0
2014-Sep-10 23:31N 52°28' E 004°36'0 0.0
2014-Sep-10 22:28N 52°28' E 004°36'0 0.0
2014-Sep-10 21:31N 52°28' E 004°36'0 0.0
2014-Sep-10 20:33N 52°28' E 004°36'0 0.0
2014-Sep-10 19:33N 52°28' E 004°36'0 0.0
2014-Sep-10 18:32N 52°28' E 004°36'  

Dump ship's entire track history